Terminal Aerodrome Forecast
Issued by NWS

Home | Current Version | Previous Version | Text Only | Print | Product List | Glossary On
Versions: 1 2 3 4 5 6 7 8 9 10 11 12
000
FTUS42 TJSJ 022349
TAFKPK
TAF
TKPK 022349Z 0300/0324 07013KT P6SM VCSH SCT018
     FM031200 07017G21KT P6SM FEW020 FEW040
     FM032300 06013KT P6SM SCT018
      AMD NOT SKED 0302/0311=

USA.gov is the U.S. government's official web portal to all federal, state and local government web resources and services.